Time;durP1;ratioP1;P1;durP2;ratioP2;P2;SDS_P1;SDS_P2;PMS_P1;PMS_P2;Temp;Humidity;BMP_temperature;BMP_pressure;BME280_temperature;BME280_humidity;BME280_pressure;Samples;Min_cycle;Max_cycle;Signal;HPM_P1;HPM_P2
2022/03/16 00:01:25;;;;;;;87.97;21.80;;;;;;;;;;5113426;28;20760;-69
2022/03/16 00:03:52;;;;;;;87.87;24.30;;;;;;;;;;5112771;28;21019;-70
2022/03/16 00:06:19;;;;;;;89.17;24.33;;;;;;;;;;5113139;28;20825;-71
2022/03/16 00:08:46;;;;;;;84.07;21.47;;;;;;;;;;5112485;28;20824;-69
2022/03/16 00:11:14;;;;;;;86.70;21.50;;;;;;;;;;5113300;28;21000;-71
2022/03/16 00:13:41;;;;;;;86.60;22.30;;;;;;;;;;5113234;27;20447;-69
2022/03/16 00:16:09;;;;;;;85.30;22.37;;;;;;;;;;5112901;28;20487;-70
2022/03/16 00:18:36;;;;;;;88.60;23.23;;;;;;;;;;5112165;28;20746;-69
2022/03/16 00:21:04;;;;;;;89.30;24.73;;;;;;;;;;5113108;28;20443;-71
2022/03/16 00:23:32;;;;;;;89.77;24.27;;;;;;;;;;5112724;28;20458;-70
2022/03/16 00:25:59;;;;;;;90.77;24.60;;;;;;;;;;5112876;28;21022;-69
2022/03/16 00:28:26;;;;;;;89.80;24.10;;;;;;;;;;5112018;28;20933;-70
2022/03/16 00:30:53;;;;;;;88.33;23.53;;;;;;;;;;5102172;27;20539;-70
2022/03/16 00:33:22;;;;;;;87.67;23.00;;;;;;;;;;5092174;28;20445;-69
2022/03/16 00:35:49;;;;;;;87.60;23.70;;;;;;;;;;5092686;28;21104;-69
2022/03/16 00:38:17;;;;;;;88.07;23.47;;;;;;;;;;5091742;28;21052;-69
2022/03/16 00:40:45;;;;;;;88.80;24.47;;;;;;;;;;5092220;28;20536;-69
2022/03/16 00:43:12;;;;;;;94.17;25.30;;;;;;;;;;5091935;28;20552;-69
2022/03/16 00:45:39;;;;;;;89.20;24.90;;;;;;;;;;5091948;28;20514;-72
2022/03/16 00:48:06;;;;;;;90.40;25.33;;;;;;;;;;5091612;28;20560;-69
2022/03/16 00:50:35;;;;;;;89.40;24.23;;;;;;;;;;5092288;28;20453;-69
2022/03/16 00:53:02;;;;;;;86.83;23.63;;;;;;;;;;5091836;28;20443;-70
2022/03/16 00:55:29;;;;;;;91.83;24.67;;;;;;;;;;5092130;28;20459;-69
2022/03/16 00:57:56;;;;;;;93.50;25.07;;;;;;;;;;5091197;28;20477;-69
2022/03/16 01:00:23;;;;;;;89.47;23.73;;;;;;;;;;5091569;28;20448;-70
2022/03/16 01:02:53;;;;;;;90.53;24.27;;;;;;;;;;5097949;28;20462;-69
2022/03/16 01:05:20;;;;;;;90.40;23.53;;;;;;;;;;5111985;28;20501;-70
2022/03/16 01:07:49;;;;;;;91.13;24.10;;;;;;;;;;5111434;28;20438;-69
2022/03/16 01:10:16;;;;;;;92.87;25.93;;;;;;;;;;5112167;28;20529;-69
2022/03/16 01:12:43;;;;;;;90.07;23.03;;;;;;;;;;5111915;28;20558;-71
2022/03/16 01:15:11;;;;;;;89.57;24.40;;;;;;;;;;5112263;28;20443;-70
2022/03/16 01:17:39;;;;;;;91.90;25.83;;;;;;;;;;5111351;28;20483;-70
2022/03/16 01:20:07;;;;;;;91.50;24.77;;;;;;;;;;5112217;28;20470;-70
2022/03/16 01:22:34;;;;;;;97.17;27.53;;;;;;;;;;5111897;28;20448;-70
2022/03/16 01:25:02;;;;;;;95.10;26.80;;;;;;;;;;5111811;28;20543;-70
2022/03/16 01:27:29;;;;;;;92.20;26.10;;;;;;;;;;5111161;28;21065;-70
2022/03/16 01:29:56;;;;;;;87.57;23.20;;;;;;;;;;5112012;28;20550;-69
2022/03/16 01:32:24;;;;;;;90.27;25.03;;;;;;;;;;5111100;28;20472;-72
2022/03/16 01:34:51;;;;;;;94.67;24.80;;;;;;;;;;5108797;28;20452;-69
2022/03/16 01:37:18;;;;;;;94.23;25.00;;;;;;;;;;5111173;28;20586;-71
2022/03/16 01:39:45;;;;;;;93.03;26.67;;;;;;;;;;5112061;28;20892;-70
2022/03/16 01:42:14;;;;;;;92.13;26.77;;;;;;;;;;5112104;28;20444;-70
2022/03/16 01:44:45;;;;;;;96.93;26.93;;;;;;;;;;5111642;28;20454;-70
2022/03/16 01:47:12;;;;;;;96.43;26.33;;;;;;;;;;5111260;28;20474;-69
2022/03/16 01:49:39;;;;;;;92.83;25.67;;;;;;;;;;5111759;28;20449;-69
2022/03/16 01:52:07;;;;;;;92.27;25.63;;;;;;;;;;5111863;28;20459;-71
2022/03/16 01:54:34;;;;;;;91.57;25.20;;;;;;;;;;5111476;28;20800;-71
2022/03/16 01:57:01;;;;;;;92.27;26.03;;;;;;;;;;5111688;28;20553;-69
2022/03/16 01:59:31;;;;;;;94.30;25.60;;;;;;;;;;5111107;28;20452;-70
2022/03/16 02:01:59;;;;;;;94.57;25.07;;;;;;;;;;5111802;28;20445;-69
2022/03/16 02:04:26;;;;;;;90.40;24.83;;;;;;;;;;5110325;28;20538;-70
2022/03/16 02:06:53;;;;;;;91.80;26.17;;;;;;;;;;5089426;28;20491;-70
2022/03/16 02:09:21;;;;;;;92.47;25.33;;;;;;;;;;5090544;28;20957;-70
2022/03/16 02:11:48;;;;;;;89.67;23.63;;;;;;;;;;5092934;28;20473;-69
2022/03/16 02:14:17;;;;;;;93.70;27.03;;;;;;;;;;5095328;28;20528;-70
2022/03/16 02:16:46;;;;;;;91.37;23.97;;;;;;;;;;5095104;28;20984;-69
2022/03/16 02:19:13;;;;;;;92.50;25.27;;;;;;;;;;5094631;28;20522;-70
2022/03/16 02:21:41;;;;;;;94.27;26.13;;;;;;;;;;5095144;28;20569;-69
2022/03/16 02:24:10;;;;;;;89.67;24.63;;;;;;;;;;5094963;28;20820;-70
2022/03/16 02:26:37;;;;;;;93.50;25.07;;;;;;;;;;5094719;28;20465;-69
2022/03/16 02:29:04;;;;;;;90.23;24.20;;;;;;;;;;5094143;28;20528;-69
2022/03/16 02:31:31;;;;;;;100.20;26.70;;;;;;;;;;5094868;28;20540;-70
2022/03/16 02:33:59;;;;;;;94.93;26.73;;;;;;;;;;5098063;28;20542;-70
2022/03/16 02:36:26;;;;;;;94.77;25.23;;;;;;;;;;5109580;28;20488;-70
2022/03/16 02:38:53;;;;;;;95.37;27.63;;;;;;;;;;5093778;28;20489;-69
2022/03/16 02:41:22;;;;;;;95.83;27.20;;;;;;;;;;5094720;28;20454;-69
2022/03/16 02:43:49;;;;;;;96.60;25.80;;;;;;;;;;5094282;28;20452;-69
2022/03/16 02:46:17;;;;;;;105.83;27.97;;;;;;;;;;5094422;28;20508;-69
2022/03/16 02:48:44;;;;;;;99.57;27.30;;;;;;;;;;5094057;28;20447;-70
2022/03/16 02:51:11;;;;;;;101.17;28.00;;;;;;;;;;5094458;28;20531;-69
2022/03/16 02:53:38;;;;;;;95.93;25.90;;;;;;;;;;5094560;28;20446;-69
2022/03/16 02:56:07;;;;;;;96.27;26.77;;;;;;;;;;5093979;28;21012;-69
2022/03/16 02:58:35;;;;;;;95.37;25.67;;;;;;;;;;5093887;28;20488;-71
2022/03/16 03:01:02;;;;;;;96.60;25.03;;;;;;;;;;5094197;28;20536;-70
2022/03/16 03:03:33;;;;;;;97.47;26.07;;;;;;;;;;5094384;28;20454;-69
2022/03/16 03:06:01;;;;;;;92.87;25.97;;;;;;;;;;5093960;28;20477;-70
2022/03/16 03:08:28;;;;;;;96.47;25.93;;;;;;;;;;5090555;28;20447;-69
2022/03/16 03:10:55;;;;;;;95.07;26.10;;;;;;;;;;5093555;28;20941;-69
2022/03/16 03:13:22;;;;;;;102.23;30.23;;;;;;;;;;5094062;28;20543;-69
2022/03/16 03:15:50;;;;;;;100.90;25.63;;;;;;;;;;5093970;28;20465;-70
2022/03/16 03:18:18;;;;;;;100.03;26.90;;;;;;;;;;5093175;28;20477;-70
2022/03/16 03:20:45;;;;;;;102.87;26.70;;;;;;;;;;5093840;28;20891;-69
2022/03/16 03:23:12;;;;;;;99.20;26.53;;;;;;;;;;5092347;28;20948;-70
2022/03/16 03:25:39;;;;;;;95.40;25.90;;;;;;;;;;5093813;28;20471;-70
2022/03/16 03:28:06;;;;;;;98.23;28.97;;;;;;;;;;5093418;28;20536;-69
2022/03/16 03:30:33;;;;;;;96.77;26.57;;;;;;;;;;5093630;28;20891;-69
2022/03/16 03:33:02;;;;;;;98.03;26.47;;;;;;;;;;5093569;28;20444;-69
2022/03/16 03:35:29;;;;;;;98.33;25.67;;;;;;;;;;5093451;28;20444;-69
2022/03/16 03:37:56;;;;;;;100.73;26.40;;;;;;;;;;5092646;28;20571;-69
2022/03/16 03:40:24;;;;;;;94.07;25.30;;;;;;;;;;5096419;28;20449;-70
2022/03/16 03:42:51;;;;;;;97.77;26.03;;;;;;;;;;5113862;28;20831;-70
2022/03/16 03:45:19;;;;;;;92.40;25.03;;;;;;;;;;5113597;28;20454;-69
2022/03/16 03:47:46;;;;;;;97.27;26.97;;;;;;;;;;5112811;28;20451;-69
2022/03/16 03:50:16;;;;;;;93.77;24.27;;;;;;;;;;5113536;28;20770;-69
2022/03/16 03:52:43;;;;;;;91.90;25.67;;;;;;;;;;5113697;28;20452;-69
2022/03/16 03:55:10;;;;;;;96.07;26.17;;;;;;;;;;5113444;28;20499;-70
2022/03/16 03:57:37;;;;;;;97.73;25.60;;;;;;;;;;5112841;28;20464;-69
2022/03/16 04:00:04;;;;;;;94.83;26.47;;;;;;;;;;5113475;28;20866;-69
2022/03/16 04:02:32;;;;;;;97.00;25.37;;;;;;;;;;5113470;27;20835;-70
2022/03/16 04:04:59;;;;;;;94.70;26.33;;;;;;;;;;5113031;28;20451;-69
2022/03/16 04:07:27;;;;;;;96.67;26.63;;;;;;;;;;5112356;28;21086;-70
2022/03/16 04:09:55;;;;;;;98.17;26.27;;;;;;;;;;5113238;28;20824;-70
2022/03/16 04:12:22;;;;;;;99.47;26.70;;;;;;;;;;5102463;28;20461;-69
2022/03/16 04:14:49;;;;;;;102.13;29.13;;;;;;;;;;5092894;28;20540;-69
2022/03/16 04:17:16;;;;;;;105.87;29.20;;;;;;;;;;5092455;28;21034;-69
2022/03/16 04:19:43;;;;;;;102.30;27.07;;;;;;;;;;5092440;28;20485;-69
2022/03/16 04:22:11;;;;;;;99.80;29.87;;;;;;;;;;5092574;28;20452;-71
2022/03/16 04:24:39;;;;;;;94.53;27.53;;;;;;;;;;5092608;28;20479;-69
2022/03/16 04:27:06;;;;;;;95.33;26.70;;;;;;;;;;5091862;28;20468;-74
2022/03/16 04:29:34;;;;;;;101.03;27.87;;;;;;;;;;5092163;28;20500;-69
2022/03/16 04:32:01;;;;;;;97.07;26.10;;;;;;;;;;5092307;28;20525;-70
2022/03/16 04:34:28;;;;;;;97.47;26.10;;;;;;;;;;5092152;28;20452;-69
2022/03/16 04:36:55;;;;;;;95.83;25.37;;;;;;;;;;5092370;28;20919;-69
2022/03/16 04:39:22;;;;;;;104.17;27.33;;;;;;;;;;5091519;28;20490;-69
2022/03/16 04:41:51;;;;;;;105.30;28.60;;;;;;;;;;5092333;28;20446;-69
2022/03/16 04:44:18;;;;;;;101.40;27.80;;;;;;;;;;5102220;28;20454;-69
2022/03/16 04:46:45;;;;;;;99.83;27.93;;;;;;;;;;5112399;28;20499;-70
2022/03/16 04:49:12;;;;;;;100.60;26.80;;;;;;;;;;5111668;28;20456;-69
2022/03/16 04:51:40;;;;;;;101.53;27.13;;;;;;;;;;5112383;28;20542;-70
2022/03/16 04:54:07;;;;;;;96.80;27.53;;;;;;;;;;5112384;28;20448;-71
2022/03/16 04:56:35;;;;;;;101.70;25.93;;;;;;;;;;5112364;28;20463;-69
2022/03/16 04:59:03;;;;;;;103.07;29.20;;;;;;;;;;5111581;28;20481;-69
2022/03/16 05:01:31;;;;;;;95.63;25.17;;;;;;;;;;5112481;28;20454;-69
2022/03/16 05:03:58;;;;;;;95.83;24.50;;;;;;;;;;5112418;28;20447;-69
2022/03/16 05:06:25;;;;;;;99.23;26.60;;;;;;;;;;5112007;28;20471;-69
2022/03/16 05:08:52;;;;;;;95.93;25.07;;;;;;;;;;5111308;28;20446;-69
2022/03/16 05:11:21;;;;;;;95.27;25.50;;;;;;;;;;5112215;28;20543;-69
2022/03/16 05:13:48;;;;;;;96.70;25.30;;;;;;;;;;5111454;28;20463;-74
2022/03/16 05:16:17;;;;;;;97.07;24.37;;;;;;;;;;5089802;28;20928;-69
2022/03/16 05:18:45;;;;;;;101.40;24.93;;;;;;;;;;5091115;28;20824;-70
2022/03/16 05:21:13;;;;;;;95.80;26.70;;;;;;;;;;5091755;28;20816;-69
2022/03/16 05:23:41;;;;;;;97.70;25.00;;;;;;;;;;5091555;28;20466;-69
2022/03/16 05:26:09;;;;;;;95.97;25.07;;;;;;;;;;5091216;28;20470;-70
2022/03/16 05:28:36;;;;;;;102.77;27.53;;;;;;;;;;5091122;28;20453;-69
2022/03/16 05:31:04;;;;;;;91.90;23.53;;;;;;;;;;5091591;28;20465;-70
2022/03/16 05:33:32;;;;;;;99.90;25.73;;;;;;;;;;5091676;28;20893;-69
2022/03/16 05:36:00;;;;;;;95.10;26.23;;;;;;;;;;5091521;28;20571;-69
2022/03/16 05:38:27;;;;;;;100.00;26.90;;;;;;;;;;5090777;28;20449;-70
2022/03/16 05:40:54;;;;;;;92.93;24.93;;;;;;;;;;5092008;28;20448;-67
2022/03/16 05:43:22;;;;;;;98.30;25.67;;;;;;;;;;5091447;28;20945;-68
2022/03/16 05:45:50;;;;;;;95.57;25.13;;;;;;;;;;5094892;28;20472;-68
2022/03/16 05:48:17;;;;;;;97.40;25.50;;;;;;;;;;5115162;28;20447;-68
2022/03/16 05:50:46;;;;;;;101.00;27.30;;;;;;;;;;5116027;28;20453;-72
2022/03/16 05:53:14;;;;;;;94.27;25.27;;;;;;;;;;5115781;28;20475;-71
2022/03/16 05:55:41;;;;;;;103.47;27.03;;;;;;;;;;5115962;28;20474;-71
2022/03/16 05:58:09;;;;;;;103.87;27.67;;;;;;;;;;5115475;28;20793;-69
2022/03/16 06:00:37;;;;;;;106.43;28.70;;;;;;;;;;5115533;28;20509;-69
2022/03/16 06:03:05;;;;;;;104.27;26.93;;;;;;;;;;5116031;28;20456;-69
2022/03/16 06:05:32;;;;;;;105.60;27.73;;;;;;;;;;5115497;28;20550;-69
2022/03/16 06:08:01;;;;;;;102.17;28.47;;;;;;;;;;5114877;28;20821;-71
2022/03/16 06:10:28;;;;;;;111.20;27.77;;;;;;;;;;5115697;28;20444;-69
2022/03/16 06:12:56;;;;;;;101.33;26.27;;;;;;;;;;5115554;28;20447;-69
2022/03/16 06:15:24;;;;;;;100.63;27.77;;;;;;;;;;5115362;28;20460;-71
2022/03/16 06:17:51;;;;;;;98.40;25.23;;;;;;;;;;5111139;27;20450;-71
2022/03/16 06:20:19;;;;;;;97.57;24.30;;;;;;;;;;5115173;28;21071;-69
2022/03/16 06:22:46;;;;;;;104.47;26.67;;;;;;;;;;5115066;28;20538;-70
2022/03/16 06:25:14;;;;;;;94.90;25.60;;;;;;;;;;5115546;28;20450;-69
2022/03/16 06:27:42;;;;;;;104.90;26.63;;;;;;;;;;5114409;28;20442;-70
2022/03/16 06:30:09;;;;;;;93.45;24.20;;;;;;;;;;5115030;28;20493;-69
2022/03/16 06:32:37;;;;;;;96.47;25.23;;;;;;;;;;5115115;28;20276;-70
2022/03/16 06:35:05;;;;;;;102.95;26.77;;;;;;;;;;5115249;28;20242;-70
2022/03/16 06:37:32;;;;;;;102.30;26.10;;;;;;;;;;5114323;28;20267;-70
2022/03/16 06:39:59;;;;;;;98.43;23.90;;;;;;;;;;5115024;28;20311;-68
2022/03/16 06:42:27;;;;;;;98.10;23.80;;;;;;;;;;5114844;28;20208;-69
2022/03/16 06:44:55;;;;;;;97.05;23.98;;;;;;;;;;5114825;28;20295;-69
2022/03/16 06:47:22;;;;;;;100.70;23.80;;;;;;;;;;5113452;28;20307;-68
2022/03/16 06:49:49;;;;;;;103.35;24.67;;;;;;;;;;5111368;28;20219;-68
2022/03/16 06:52:16;;;;;;;92.78;22.40;;;;;;;;;;5114651;28;20220;-68
2022/03/16 06:54:43;;;;;;;100.47;24.17;;;;;;;;;;5114913;28;20199;-68
2022/03/16 06:57:11;;;;;;;95.30;24.10;;;;;;;;;;5113685;27;20267;-71
2022/03/16 06:59:42;;;;;;;100.95;24.65;;;;;;;;;;5114499;28;20224;-68
2022/03/16 07:02:09;;;;;;;94.43;23.02;;;;;;;;;;5114563;28;20570;-69
2022/03/16 07:04:36;;;;;;;95.17;22.93;;;;;;;;;;5114449;28;20680;-68
2022/03/16 07:07:03;;;;;;;97.95;24.30;;;;;;;;;;5114515;28;20556;-68
2022/03/16 07:09:32;;;;;;;99.05;24.65;;;;;;;;;;5113602;28;20200;-68
2022/03/16 07:11:59;;;;;;;93.15;22.50;;;;;;;;;;5114617;28;20574;-70
2022/03/16 07:14:32;;;;;;;90.97;20.42;;;;;;;;;;5114125;28;20213;-68
2022/03/16 07:17:01;;;;;;;91.97;22.98;;;;;;;;;;5114373;28;20258;-71
2022/03/16 07:19:29;;;;;;;100.47;24.80;;;;;;;;;;5112545;28;20775;-68
2022/03/16 07:21:58;;;;;;;101.22;26.83;;;;;;;;;;5110820;28;20484;-68
2022/03/16 07:24:26;;;;;;;91.70;21.60;;;;;;;;;;5114165;28;20201;-69
2022/03/16 07:26:54;;;;;;;96.13;23.00;;;;;;;;;;5113842;28;20473;-69
2022/03/16 07:29:21;;;;;;;102.10;24.60;;;;;;;;;;5113131;28;20209;-67
2022/03/16 07:31:48;;;;;;;94.10;22.15;;;;;;;;;;5114193;28;20449;-68
2022/03/16 07:34:16;;;;;;;95.68;23.17;;;;;;;;;;5112265;28;20211;-67
2022/03/16 07:36:44;;;;;;;97.15;23.58;;;;;;;;;;5112379;28;20315;-68
2022/03/16 07:39:11;;;;;;;100.13;25.65;;;;;;;;;;5111830;28;20317;-67
2022/03/16 07:41:39;;;;;;;93.38;22.50;;;;;;;;;;5112184;28;20216;-68
2022/03/16 07:44:07;;;;;;;91.82;23.13;;;;;;;;;;5112177;28;20216;-67
2022/03/16 07:46:34;;;;;;;101.50;22.67;;;;;;;;;;5112426;28;20228;-69
2022/03/16 07:49:01;;;;;;;91.27;21.13;;;;;;;;;;5112660;27;20485;-67
2022/03/16 07:51:30;;;;;;;92.88;23.50;;;;;;;;;;5110030;28;21006;-68
2022/03/16 07:53:57;;;;;;;94.88;22.80;;;;;;;;;;5113289;28;20676;-67
2022/03/16 07:56:24;;;;;;;90.85;22.33;;;;;;;;;;5113469;28;20800;-68
2022/03/16 07:58:53;;;;;;;91.97;21.10;;;;;;;;;;5112929;28;20201;-68
2022/03/16 08:01:21;;;;;;;87.82;21.67;;;;;;;;;;5113694;28;20257;-68
2022/03/16 08:03:48;;;;;;;93.03;20.52;;;;;;;;;;5113387;27;20212;-67
2022/03/16 08:06:15;;;;;;;86.33;21.47;;;;;;;;;;5113312;28;20229;-66
2022/03/16 08:08:44;;;;;;;90.10;21.10;;;;;;;;;;5111705;28;20942;-69
2022/03/16 08:11:11;;;;;;;92.53;20.60;;;;;;;;;;5112837;28;20204;-68
2022/03/16 08:13:39;;;;;;;89.37;20.70;;;;;;;;;;5113288;28;20452;-71
2022/03/16 08:16:06;;;;;;;89.37;22.13;;;;;;;;;;5113284;28;20505;-67
2022/03/16 08:18:34;;;;;;;86.83;22.83;;;;;;;;;;5112483;28;20534;-68
2022/03/16 08:21:02;;;;;;;89.97;21.25;;;;;;;;;;5112927;28;20486;-68
2022/03/16 08:23:29;;;;;;;91.33;20.83;;;;;;;;;;5109950;28;20214;-68
2022/03/16 08:25:58;;;;;;;87.33;19.60;;;;;;;;;;5112881;28;20531;-68
2022/03/16 08:28:26;;;;;;;87.70;21.58;;;;;;;;;;5112163;28;20491;-68
2022/03/16 08:30:53;;;;;;;89.93;20.77;;;;;;;;;;5112484;28;20235;-67
2022/03/16 08:33:22;;;;;;;87.63;21.30;;;;;;;;;;5112707;28;20446;-68
2022/03/16 08:35:49;;;;;;;90.97;19.73;;;;;;;;;;5112593;28;20877;-67
2022/03/16 08:38:16;;;;;;;85.67;19.43;;;;;;;;;;5112015;28;20445;-68
2022/03/16 08:40:43;;;;;;;82.80;18.27;;;;;;;;;;5112736;28;20489;-70
2022/03/16 08:43:12;;;;;;;86.13;18.40;;;;;;;;;;5112632;28;20796;-67
2022/03/16 08:45:40;;;;;;;84.77;19.13;;;;;;;;;;5112505;28;20316;-68
2022/03/16 08:48:07;;;;;;;88.70;19.47;;;;;;;;;;5111650;28;20458;-71
2022/03/16 08:50:35;;;;;;;83.13;18.53;;;;;;;;;;5112320;28;20525;-68
2022/03/16 08:53:02;;;;;;;81.17;17.87;;;;;;;;;;5111605;28;20455;-68
2022/03/16 08:55:29;;;;;;;84.73;19.20;;;;;;;;;;5109220;28;20448;-68
2022/03/16 08:57:57;;;;;;;84.47;18.80;;;;;;;;;;5111843;28;20535;-67
2022/03/16 09:00:26;;;;;;;84.87;19.10;;;;;;;;;;5112351;28;20230;-68
2022/03/16 09:02:53;;;;;;;87.40;19.57;;;;;;;;;;5111786;28;20945;-67
2022/03/16 09:05:20;;;;;;;84.50;19.30;;;;;;;;;;5112084;28;20448;-68
2022/03/16 09:07:47;;;;;;;84.93;18.57;;;;;;;;;;5111851;28;20805;-67
2022/03/16 09:10:14;;;;;;;84.83;19.03;;;;;;;;;;5111944;28;20444;-68
2022/03/16 09:12:42;;;;;;;84.73;18.60;;;;;;;;;;5112144;28;20443;-67
2022/03/16 09:15:09;;;;;;;82.20;18.63;;;;;;;;;;5112112;28;20479;-68
2022/03/16 09:17:38;;;;;;;86.70;20.23;;;;;;;;;;5111609;28;20475;-70
2022/03/16 09:20:06;;;;;;;84.73;20.00;;;;;;;;;;5112142;28;20567;-68
2022/03/16 09:22:33;;;;;;;84.97;20.90;;;;;;;;;;5112085;28;21048;-68
2022/03/16 09:25:01;;;;;;;88.20;20.07;;;;;;;;;;5105332;28;20460;-71
2022/03/16 09:27:28;;;;;;;82.70;19.23;;;;;;;;;;5091018;28;20538;-67
2022/03/16 09:29:55;;;;;;;84.83;19.27;;;;;;;;;;5091221;28;20458;-68
2022/03/16 09:32:22;;;;;;;86.63;19.20;;;;;;;;;;5091550;28;20468;-69
2022/03/16 09:34:51;;;;;;;84.47;18.80;;;;;;;;;;5098852;28;21039;-69
2022/03/16 09:37:19;;;;;;;85.50;19.87;;;;;;;;;;5111153;28;20578;-71
2022/03/16 09:39:46;;;;;;;87.60;21.77;;;;;;;;;;5111778;28;20448;-69
2022/03/16 09:42:13;;;;;;;85.80;19.50;;;;;;;;;;5111526;28;20450;-70
2022/03/16 09:44:41;;;;;;;87.73;20.00;;;;;;;;;;5110791;28;20479;-68
2022/03/16 09:47:09;;;;;;;99.97;24.37;;;;;;;;;;5095920;28;20559;-70
2022/03/16 09:49:38;;;;;;;84.27;18.97;;;;;;;;;;5091533;28;20541;-68
2022/03/16 09:52:09;;;;;;;84.30;19.83;;;;;;;;;;5091003;28;20445;-70
2022/03/16 09:54:36;;;;;;;84.70;19.33;;;;;;;;;;5091002;28;20997;-68
2022/03/16 09:57:03;;;;;;;84.57;19.37;;;;;;;;;;5091110;28;20476;-68
2022/03/16 09:59:30;;;;;;;84.57;20.27;;;;;;;;;;5090979;28;20540;-68
2022/03/16 10:01:58;;;;;;;87.20;19.53;;;;;;;;;;5091660;28;20481;-70
2022/03/16 10:04:29;;;;;;;87.10;20.00;;;;;;;;;;5091463;28;20448;-68
2022/03/16 10:06:56;;;;;;;86.00;18.87;;;;;;;;;;5091417;28;20540;-68
2022/03/16 10:15:04;;;;;;;83.93;20.00;;;;;;;;;;5091506;28;20420;-68
2022/03/16 10:17:46;;;;;;;80.83;18.40;;;;;;;;;;5086527;28;21026;-68
2022/03/16 10:20:21;;;;;;;81.00;18.67;;;;;;;;;;5091662;28;20717;-68
2022/03/16 10:22:54;;;;;;;80.47;17.07;;;;;;;;;;5091385;28;20467;-68
2022/03/16 10:25:22;;;;;;;78.07;15.83;;;;;;;;;;5091422;28;20537;-69
2022/03/16 10:27:49;;;;;;;82.20;18.00;;;;;;;;;;5106943;28;20455;-68
2022/03/16 10:30:19;;;;;;;83.23;17.90;;;;;;;;;;5110983;28;20502;-68
2022/03/16 10:32:55;;;;;;;76.07;15.73;;;;;;;;;;5112447;28;20453;-68
2022/03/16 10:35:23;;;;;;;78.57;17.20;;;;;;;;;;5115437;28;20451;-69
2022/03/16 10:37:51;;;;;;;78.57;14.90;;;;;;;;;;5114355;28;20496;-69
2022/03/16 10:40:26;;;;;;;75.03;14.77;;;;;;;;;;5115006;28;21039;-68
2022/03/16 10:48:23;;;;;;;78.70;16.30;;;;;;;;;;5111542;28;20420;-72
2022/03/16 10:50:52;;;;;;;78.47;16.77;;;;;;;;;;5093549;28;20925;-70
2022/03/16 10:53:21;;;;;;;74.13;14.33;;;;;;;;;;5093749;28;20802;-68
2022/03/16 10:55:50;;;;;;;78.07;16.97;;;;;;;;;;5094676;28;20515;-68
2022/03/16 10:58:19;;;;;;;75.80;15.63;;;;;;;;;;5093703;28;20453;-68
2022/03/16 11:00:47;;;;;;;76.77;15.40;;;;;;;;;;5094130;28;20513;-68
2022/03/16 11:03:16;;;;;;;76.90;15.53;;;;;;;;;;5094197;28;20450;-69
2022/03/16 11:05:43;;;;;;;73.40;15.07;;;;;;;;;;5093902;28;20470;-69
2022/03/16 11:08:12;;;;;;;75.83;15.67;;;;;;;;;;5093756;28;20539;-69
2022/03/16 11:10:39;;;;;;;74.00;13.83;;;;;;;;;;5094327;28;20509;-69
2022/03/16 11:15:53;;;;;;;71.93;13.93;;;;;;;;;;5093951;28;21058;-68
2022/03/16 11:18:21;;;;;;;75.17;15.10;;;;;;;;;;5093356;28;20491;-69
2022/03/16 11:20:49;;;;;;;74.77;14.83;;;;;;;;;;5098025;28;20669;-69
2022/03/16 11:26:12;;;;;;;71.83;14.47;;;;;;;;;;5114252;28;20437;-68
2022/03/16 11:28:46;;;;;;;70.77;13.87;;;;;;;;;;5113329;27;20465;-68
2022/03/16 11:31:14;;;;;;;71.60;13.60;;;;;;;;;;5114063;28;20560;-70
2022/03/16 11:33:51;;;;;;;77.37;15.23;;;;;;;;;;5113796;28;20453;-68
2022/03/16 11:36:32;;;;;;;74.17;14.20;;;;;;;;;;5113818;28;20477;-68
2022/03/16 11:39:00;;;;;;;72.27;14.20;;;;;;;;;;5113028;28;20502;-68
2022/03/16 11:41:28;;;;;;;71.70;14.87;;;;;;;;;;5113777;28;20477;-69
2022/03/16 11:44:03;;;;;;;72.77;14.23;;;;;;;;;;5112779;28;20545;-68
2022/03/16 11:46:31;;;;;;;71.97;13.80;;;;;;;;;;5113753;28;20465;-70
2022/03/16 11:49:02;;;;;;;70.30;13.53;;;;;;;;;;5113108;28;20831;-68
2022/03/16 11:51:29;;;;;;;70.57;13.33;;;;;;;;;;5108714;28;20910;-68
2022/03/16 11:54:06;;;;;;;73.77;14.23;;;;;;;;;;5092418;28;20549;-69
2022/03/16 11:56:44;;;;;;;71.00;13.20;;;;;;;;;;5093277;28;20467;-69
2022/03/16 11:59:31;;;;;;;72.33;15.20;;;;;;;;;;5092546;28;20450;-68
2022/03/16 12:02:06;;;;;;;76.93;15.43;;;;;;;;;;5092984;28;20474;-68
2022/03/16 12:04:35;;;;;;;72.73;14.03;;;;;;;;;;5092935;28;20537;-69
2022/03/16 12:07:05;;;;;;;74.20;13.40;;;;;;;;;;5092943;28;20994;-69
2022/03/16 12:09:33;;;;;;;72.40;13.80;;;;;;;;;;5092862;28;20447;-68
2022/03/16 12:15:01;;;;;;;72.93;13.60;;;;;;;;;;5092997;28;20430;-71
2022/03/16 12:17:28;;;;;;;72.30;14.93;;;;;;;;;;5091943;28;20994;-68
2022/03/16 12:20:09;;;;;;;73.07;14.10;;;;;;;;;;5092991;28;20545;-70
2022/03/16 12:22:42;;;;;;;70.67;13.77;;;;;;;;;;5091546;28;20481;-68
2022/03/16 12:25:32;;;;;;;74.77;15.60;;;;;;;;;;5090371;28;20539;-68
2022/03/16 12:30:47;;;;;;;72.67;13.37;;;;;;;;;;5092633;28;20824;-68
2022/03/16 12:33:16;;;;;;;71.67;12.40;;;;;;;;;;5091899;28;20536;-67
2022/03/16 12:35:44;;;;;;;78.23;12.90;;;;;;;;;;5092568;28;20837;-68
2022/03/16 12:38:11;;;;;;;74.90;13.60;;;;;;;;;;5091925;28;20449;-68
2022/03/16 12:42:31;;;;;;;73.37;14.67;;;;;;;;;;5092561;28;20515;-68
2022/03/16 12:43:27;;;;;;;73.73;14.40;;;;;;;;;;5092079;28;20453;-68
2022/03/16 12:46:00;;;;;;;79.27;13.87;;;;;;;;;;5092050;28;20473;-68
2022/03/16 12:48:27;;;;;;;75.83;13.70;;;;;;;;;;5091550;28;20527;-68
2022/03/16 12:50:54;;;;;;;73.73;13.40;;;;;;;;;;5092139;28;20451;-68
2022/03/16 12:53:44;;;;;;;71.13;13.20;;;;;;;;;;5091027;28;20547;-68
2022/03/16 12:56:11;;;;;;;74.60;14.90;;;;;;;;;;5103990;28;20475;-68
2022/03/16 12:58:39;;;;;;;78.03;14.63;;;;;;;;;;5111961;28;20499;-68
2022/03/16 13:01:07;;;;;;;73.87;14.60;;;;;;;;;;5112401;28;20476;-68
2022/03/16 13:03:34;;;;;;;71.40;14.10;;;;;;;;;;5112325;28;20901;-68
2022/03/16 13:06:02;;;;;;;73.07;14.30;;;;;;;;;;5112479;28;20469;-68
2022/03/16 13:08:29;;;;;;;72.43;13.93;;;;;;;;;;5111635;28;20448;-67
2022/03/16 13:11:17;;;;;;;73.63;14.13;;;;;;;;;;5112180;28;20498;-68
2022/03/16 13:13:47;;;;;;;72.13;13.07;;;;;;;;;;5111830;28;20499;-70
2022/03/16 13:16:29;;;;;;;73.10;13.97;;;;;;;;;;5112406;28;20462;-67
2022/03/16 13:18:57;;;;;;;72.03;14.17;;;;;;;;;;5111412;28;20532;-68
2022/03/16 13:21:25;;;;;;;69.50;12.53;;;;;;;;;;5112240;28;20490;-68
2022/03/16 13:24:01;;;;;;;74.17;15.20;;;;;;;;;;5112032;28;20457;-68
2022/03/16 13:26:29;;;;;;;72.23;13.53;;;;;;;;;;5109946;28;20476;-68
2022/03/16 13:28:57;;;;;;;76.47;14.93;;;;;;;;;;5110796;28;20452;-68
2022/03/16 13:31:26;;;;;;;73.07;13.80;;;;;;;;;;5111861;28;20447;-68
2022/03/16 13:33:53;;;;;;;70.87;13.17;;;;;;;;;;5111983;28;20932;-69
2022/03/16 13:36:32;;;;;;;72.60;14.30;;;;;;;;;;5112109;28;20556;-68
2022/03/16 13:39:00;;;;;;;77.63;14.83;;;;;;;;;;5111448;28;20446;-69
2022/03/16 13:41:27;;;;;;;73.43;14.50;;;;;;;;;;5111789;28;20536;-69
2022/03/16 13:44:04;;;;;;;73.57;13.73;;;;;;;;;;5110225;28;20594;-68
2022/03/16 13:46:38;;;;;;;72.67;13.57;;;;;;;;;;5110068;28;20997;-68
2022/03/16 13:49:10;;;;;;;70.43;12.80;;;;;;;;;;5109527;28;20457;-71
2022/03/16 13:51:59;;;;;;;71.37;14.00;;;;;;;;;;5110547;28;20539;-68
2022/03/16 13:54:27;;;;;;;73.80;14.60;;;;;;;;;;5110002;28;20829;-69
2022/03/16 13:56:54;;;;;;;72.90;14.33;;;;;;;;;;5110261;28;20463;-69
2022/03/16 13:59:21;;;;;;;71.77;13.57;;;;;;;;;;5111706;28;20521;-68
2022/03/16 14:01:48;;;;;;;71.53;13.43;;;;;;;;;;5112121;28;20482;-68
2022/03/16 14:04:21;;;;;;;71.60;12.43;;;;;;;;;;5111889;28;20829;-70
2022/03/16 14:06:55;;;;;;;69.57;11.93;;;;;;;;;;5111805;28;20481;-69
2022/03/16 14:09:23;;;;;;;69.87;13.00;;;;;;;;;;5115137;28;20961;-70
2022/03/16 14:11:51;;;;;;;71.37;12.80;;;;;;;;;;5115964;28;20457;-69
2022/03/16 14:14:19;;;;;;;72.97;14.27;;;;;;;;;;5116063;28;20453;-69
2022/03/16 14:16:47;;;;;;;73.03;13.90;;;;;;;;;;5115556;28;20467;-70
2022/03/16 14:19:28;;;;;;;71.33;13.87;;;;;;;;;;5115114;28;20960;-68
2022/03/16 14:21:57;;;;;;;76.73;13.77;;;;;;;;;;5116044;28;20477;-68
2022/03/16 14:24:25;;;;;;;72.07;13.90;;;;;;;;;;5115392;28;20479;-68
2022/03/16 14:26:52;;;;;;;72.23;14.07;;;;;;;;;;5115292;28;20522;-70
2022/03/16 14:29:20;;;;;;;71.80;13.90;;;;;;;;;;5114696;28;21038;-68
2022/03/16 14:31:47;;;;;;;72.60;14.93;;;;;;;;;;5115246;28;20437;-68
2022/03/16 14:34:14;;;;;;;71.00;14.10;;;;;;;;;;5115406;28;20442;-69
2022/03/16 14:36:42;;;;;;;73.17;14.23;;;;;;;;;;5115385;28;20468;-68
2022/03/16 14:39:11;;;;;;;71.07;13.03;;;;;;;;;;5114594;27;20452;-68
2022/03/16 14:41:38;;;;;;;72.30;14.00;;;;;;;;;;5115166;28;20577;-68
2022/03/16 14:44:05;;;;;;;71.77;13.50;;;;;;;;;;5115177;28;20821;-68
2022/03/16 14:46:32;;;;;;;70.93;13.30;;;;;;;;;;5114919;28;20468;-68